Time;durP1;ratioP1;P1;durP2;ratioP2;P2;SDS_P1;SDS_P2;PMS_P1;PMS_P2;Temp;Humidity;BMP_temperature;BMP_pressure;BME280_temperature;BME280_humidity;BME280_pressure;Samples;Min_cycle;Max_cycle;Signal;HPM_P1;HPM_P2
2021/09/27 00:00:00;;;;;;;4.60;4.20;;;;;;;27.81;39.37;96839.34;5031563;28;20075;-30
2021/09/27 00:02:26;;;;;;;5.10;4.18;;;;;;;27.81;39.37;96836.72;5028993;28;21010;-29
2021/09/27 00:04:52;;;;;;;5.00;4.43;;;;;;;27.81;39.34;96831.44;5036698;28;20029;-31
2021/09/27 00:07:17;;;;;;;4.80;4.30;;;;;;;27.81;39.35;96836.72;5030437;28;20041;-29
2021/09/27 00:09:44;;;;;;;4.97;4.50;;;;;;;27.81;39.34;96836.72;5029542;28;20044;-34
2021/09/27 00:12:10;;;;;;;4.50;4.10;;;;;;;27.82;39.17;96827.88;5027985;28;20029;-33
2021/09/27 00:14:36;;;;;;;4.60;4.20;;;;;;;27.82;39.30;96830.50;5031083;28;20033;-29
2021/09/27 00:17:03;;;;;;;4.40;4.00;;;;;;;27.81;39.36;96828.81;5029512;28;20067;-29
2021/09/27 00:19:28;;;;;;;5.57;4.18;;;;;;;27.81;39.16;96820.91;5031928;28;20040;-28
2021/09/27 00:21:55;;;;;;;4.88;4.18;;;;;;;27.81;39.30;96823.53;5029668;28;20025;-27
2021/09/27 00:24:21;;;;;;;4.72;4.30;;;;;;;27.82;39.11;96827.00;5022662;28;20032;-33
2021/09/27 00:26:46;;;;;;;5.68;3.97;;;;;;;27.82;39.26;96825.22;5020283;28;20407;-30
2021/09/27 00:29:12;;;;;;;4.82;4.30;;;;;;;27.83;39.24;96823.44;5019055;28;20094;-29
2021/09/27 00:31:37;;;;;;;4.30;3.90;;;;;;;27.81;39.20;96820.91;5020763;28;20064;-30
2021/09/27 00:34:03;;;;;;;4.90;4.13;;;;;;;27.82;39.13;96821.75;5026766;28;20035;-29
2021/09/27 00:36:28;;;;;;;5.15;4.10;;;;;;;27.82;39.07;96817.34;5030827;28;20372;-30
2021/09/27 00:38:54;;;;;;;4.70;4.30;;;;;;;27.81;39.15;96818.28;5028350;28;20120;-29
2021/09/27 00:41:19;;;;;;;4.90;4.40;;;;;;;27.81;38.99;96820.91;5029256;28;20607;-30
2021/09/27 00:43:45;;;;;;;4.82;4.32;;;;;;;27.82;39.10;96822.59;5028884;28;20025;-29
2021/09/27 00:46:14;;;;;;;4.50;4.05;;;;;;;27.82;39.17;96816.47;5027415;28;20029;-30
2021/09/27 00:48:40;;;;;;;5.03;4.18;;;;;;;27.81;38.96;96815.66;5019641;28;20159;-31
2021/09/27 00:51:13;;;;;;;4.72;4.15;;;;;;;27.82;38.98;96816.47;5017859;28;20327;-29
2021/09/27 00:53:51;;;;;;;4.43;4.03;;;;;;;27.78;39.18;96811.41;5003258;28;20020;-29
2021/09/27 00:56:19;;;;;;;4.63;4.13;;;;;;;27.81;38.97;96815.66;5019501;28;20033;-31
2021/09/27 00:58:46;;;;;;;5.03;4.03;;;;;;;27.81;38.99;96814.78;5024723;28;20061;-29
2021/09/27 01:01:11;;;;;;;4.70;4.22;;;;;;;27.80;39.14;96813.94;5004006;28;20513;-30
2021/09/27 01:03:37;;;;;;;5.95;4.05;;;;;;;27.82;38.95;96811.22;5021789;28;20041;-30
2021/09/27 01:06:47;;;;;;;5.38;3.97;;;;;;;27.81;39.14;96817.41;5030523;28;20203;-29
2021/09/27 01:09:28;;;;;;;3.97;3.67;;;;;;;27.81;38.89;96813.00;4923523;28;20043;-29
2021/09/27 01:12:06;;;;;;;4.75;4.25;;;;;;;27.81;39.03;96814.78;4921830;28;20038;-30
2021/09/27 01:15:02;;;;;;;4.00;3.60;;;;;;;27.81;38.98;96809.53;4994640;28;20098;-30
2021/09/27 01:17:34;;;;;;;4.70;4.30;;;;;;;27.82;39.05;96813.84;5020470;28;20025;-29
2021/09/27 01:20:23;;;;;;;4.70;4.30;;;;;;;27.81;39.07;96814.78;5020086;28;20029;-29
2021/09/27 01:23:03;;;;;;;5.15;4.50;;;;;;;27.81;38.83;96806.88;5022253;28;20063;-30
2021/09/27 01:26:12;;;;;;;4.75;4.28;;;;;;;27.79;38.92;96801.72;5031984;28;20578;-30
2021/09/27 01:29:08;;;;;;;4.53;4.13;;;;;;;27.78;39.08;96795.63;4978624;28;20181;-31
2021/09/27 01:32:09;;;;;;;5.72;4.00;;;;;;;27.78;39.15;96798.25;5019222;28;20112;-29
2021/09/27 01:34:50;;;;;;;5.53;4.25;;;;;;;27.77;38.91;96799.16;4994349;28;20529;-31
2021/09/27 01:37:17;;;;;;;;;;;;;;;27.78;39.01;96797.38;5028113;28;20040;-32
2021/09/27 01:40:08;;;;;;;5.68;4.50;;;;;;;27.78;38.95;96800.03;5026625;28;20060;-29
2021/09/27 01:43:00;;;;;;;4.43;4.03;;;;;;;27.75;38.95;96798.44;5003523;28;20076;-29
2021/09/27 01:45:49;;;;;;;4.38;3.90;;;;;;;27.74;39.09;96794.13;5011351;28;20041;-28
2021/09/27 01:48:21;;;;;;;4.97;4.38;;;;;;;27.75;38.90;96795.78;4982699;28;20445;-31
2021/09/27 01:50:55;;;;;;;4.72;3.78;;;;;;;27.75;39.00;96794.94;5007934;28;20071;-28
2021/09/27 01:53:27;;;;;;;4.40;4.00;;;;;;;27.75;38.84;96789.66;5023299;28;20093;-31
2021/09/27 01:56:02;;;;;;;4.25;3.85;;;;;;;27.74;38.89;96793.25;5018459;28;20860;-29
2021/09/27 01:58:50;;;;;;;4.68;4.28;;;;;;;27.76;38.97;96792.22;5017633;28;20032;-28
2021/09/27 02:01:36;;;;;;;4.10;3.70;;;;;;;27.75;38.85;96789.66;5019212;28;20060;-31
2021/09/27 02:04:08;;;;;;;6.43;4.38;;;;;;;27.76;38.82;96794.00;5018363;28;20027;-30
2021/09/27 02:06:40;;;;;;;4.38;3.95;;;;;;;27.75;38.91;96794.94;5002997;28;20030;-31
2021/09/27 02:09:14;;;;;;;7.85;4.50;;;;;;;27.75;38.79;96794.94;5001084;28;20507;-30
2021/09/27 02:11:42;;;;;;;6.30;4.30;;;;;;;27.75;38.88;96794.94;5007096;28;20045;-30
2021/09/27 02:14:13;;;;;;;6.47;4.07;;;;;;;27.74;38.93;96796.75;5017330;28;20082;-29
2021/09/27 02:16:44;;;;;;;4.88;4.43;;;;;;;27.74;38.84;96796.75;5017022;28;20056;-31
2021/09/27 02:19:36;;;;;;;;;;;;;;;27.75;38.88;96793.16;5019012;28;20063;-28
2021/09/27 02:22:52;;;;;;;5.80;4.05;;;;;;;27.76;38.72;96801.88;4994006;28;20118;-30
2021/09/27 02:25:31;;;;;;;5.18;3.70;;;;;;;27.74;38.66;96794.13;4984857;28;20267;-30
2021/09/27 02:27:56;;;;;;;4.45;4.05;;;;;;;27.74;38.74;96798.53;5009502;28;20119;-32
2021/09/27 02:30:24;;;;;;;5.22;4.07;;;;;;;27.75;38.81;96800.19;5032693;28;20048;-31
2021/09/27 02:33:05;;;;;;;5.55;3.88;;;;;;;27.73;38.84;96799.47;5021534;28;20031;-30
2021/09/27 02:35:36;;;;;;;4.32;3.92;;;;;;;27.74;38.80;96801.16;5018116;28;20056;-31
2021/09/27 02:38:27;;;;;;;4.40;3.92;;;;;;;27.73;38.86;96799.47;5002431;28;20035;-30
2021/09/27 02:41:21;;;;;;;4.22;3.83;;;;;;;27.73;38.59;96794.19;5012618;28;20121;-32
2021/09/27 02:43:47;;;;;;;5.28;4.18;;;;;;;27.74;38.72;96788.00;5004328;28;21007;-30
2021/09/27 02:46:12;;;;;;;4.10;3.70;;;;;;;27.73;38.67;96787.13;5016108;28;20045;-28
2021/09/27 02:48:39;;;;;;;5.60;3.90;;;;;;;27.73;38.75;96791.56;5018559;28;20040;-28
2021/09/27 02:51:05;;;;;;;4.85;3.97;;;;;;;27.74;38.72;96790.63;5026598;28;20029;-42
2021/09/27 02:53:30;;;;;;;4.25;3.85;;;;;;;27.73;38.63;96794.19;5027749;28;20029;-29
2021/09/27 02:56:25;;;;;;;4.78;3.90;;;;;;;27.73;38.66;96802.09;5029334;28;20487;-30
2021/09/27 02:58:56;;;;;;;8.18;4.25;;;;;;;27.73;38.73;96797.66;5024371;28;20111;-31
2021/09/27 03:01:25;;;;;;;4.65;4.22;;;;;;;27.73;38.72;96804.72;5025946;28;20497;-30
2021/09/27 03:04:07;;;;;;;4.55;4.00;;;;;;;27.73;38.67;96808.19;5019215;28;20660;-30
2021/09/27 03:06:57;;;;;;;4.22;3.83;;;;;;;27.74;38.62;96809.06;5024561;28;20737;-29
2021/09/27 03:09:33;;;;;;;4.07;3.70;;;;;;;27.74;38.53;96806.41;5024388;28;20029;-30
2021/09/27 03:12:14;;;;;;;4.20;3.75;;;;;;;27.73;38.58;96812.63;5026288;28;20067;-31
2021/09/27 03:15:17;;;;;;;4.22;3.83;;;;;;;27.73;38.76;96807.38;5045291;28;20454;-34
2021/09/27 03:18:10;;;;;;;4.43;3.92;;;;;;;27.72;38.78;96806.50;5031577;28;20049;-40
2021/09/27 03:20:45;;;;;;;4.63;4.10;;;;;;;27.71;38.67;96801.31;5029026;28;20139;-30
2021/09/27 03:23:14;;;;;;;4.20;3.80;;;;;;;27.73;38.54;96802.09;5008048;28;20576;-30
2021/09/27 03:26:01;;;;;;;4.20;3.80;;;;;;;27.72;38.55;96810.94;5019396;28;20034;-33
2021/09/27 03:28:52;;;;;;;5.43;3.90;;;;;;;27.71;38.54;96802.19;5025689;28;20114;-30
2021/09/27 03:31:19;;;;;;;5.78;4.03;;;;;;;27.71;38.64;96793.44;5040115;28;20033;-29
2021/09/27 03:34:09;;;;;;;5.57;4.22;;;;;;;27.70;38.65;96797.00;5032728;28;20033;-31
2021/09/27 03:36:56;;;;;;;6.45;4.25;;;;;;;27.71;38.50;96798.69;5025013;28;20721;-33
2021/09/27 03:40:04;;;;;;;6.13;4.22;;;;;;;27.71;38.51;96798.69;5020180;28;20037;-30
2021/09/27 03:42:54;;;;;;;4.03;3.63;;;;;;;27.71;38.77;96798.69;4922455;28;20027;-30
2021/09/27 03:45:27;;;;;;;4.20;3.80;;;;;;;27.71;38.50;96798.69;5000219;28;20761;-29
2021/09/27 03:48:08;;;;;;;4.30;3.80;;;;;;;27.70;38.46;96791.75;5007370;28;20597;-31
2021/09/27 03:50:53;;;;;;;4.30;3.90;;;;;;;27.70;38.69;96786.47;5021079;28;21403;-31
2021/09/27 03:53:42;;;;;;;4.57;4.18;;;;;;;27.69;38.59;96790.06;5012981;28;21359;-29
2021/09/27 03:56:20;;;;;;;4.43;4.03;;;;;;;27.69;38.53;96790.06;5022410;28;20683;-30
2021/09/27 03:58:49;;;;;;;4.47;4.07;;;;;;;27.70;38.55;96791.75;5004870;28;20063;-34
2021/09/27 04:01:22;;;;;;;4.60;4.20;;;;;;;27.70;38.47;96786.47;5005122;28;20200;-31
2021/09/27 04:03:56;;;;;;;4.43;4.03;;;;;;;27.69;38.48;96795.31;5018818;28;20736;-30
2021/09/27 04:06:34;;;;;;;5.28;3.80;;;;;;;27.69;38.44;96801.41;5005726;28;20044;-30
2021/09/27 04:09:11;;;;;;;4.10;3.70;;;;;;;27.70;38.38;96802.28;5021137;28;20044;-29
2021/09/27 04:11:36;;;;;;;6.20;3.80;;;;;;;27.70;38.41;96792.59;5019669;28;20086;-30
2021/09/27 04:14:10;;;;;;;4.30;3.90;;;;;;;27.70;38.51;96797.00;5021695;28;20035;-30
2021/09/27 04:16:59;;;;;;;4.45;4.05;;;;;;;27.70;38.52;96786.47;5019883;28;20068;-30
2021/09/27 04:19:28;;;;;;;4.10;3.70;;;;;;;27.70;38.37;96789.13;5024752;28;20032;-30
2021/09/27 04:22:05;;;;;;;5.00;4.50;;;;;;;27.69;38.41;96790.06;5032278;28;20033;-29
2021/09/27 04:24:38;;;;;;;6.78;3.85;;;;;;;27.69;38.43;96787.44;5030825;28;20048;-30
2021/09/27 04:27:33;;;;;;;4.20;3.80;;;;;;;27.69;38.45;96782.16;5035492;28;20031;-30
2021/09/27 04:30:02;;;;;;;5.55;3.60;;;;;;;27.68;38.25;96794.47;5033775;28;20029;-30
2021/09/27 04:32:41;;;;;;;4.85;3.78;;;;;;;27.68;38.41;96785.75;5030148;28;20038;-30
2021/09/27 04:35:28;;;;;;;4.78;4.07;;;;;;;27.69;38.22;96787.44;5024774;28;20596;-29
2021/09/27 04:37:54;;;;;;;4.07;3.67;;;;;;;27.69;38.26;96796.16;5018869;28;21085;-29
2021/09/27 04:40:54;;;;;;;4.28;3.88;;;;;;;27.68;38.27;96788.38;5020031;28;20033;-28
2021/09/27 04:43:43;;;;;;;4.40;4.00;;;;;;;27.68;38.42;96788.38;5020727;28;20479;-30
2021/09/27 04:46:08;;;;;;;4.18;3.78;;;;;;;27.67;38.18;96789.28;5020409;28;20036;-30
2021/09/27 04:48:36;;;;;;;4.25;3.85;;;;;;;27.67;38.53;96786.66;5023219;28;20586;-30
2021/09/27 04:51:33;;;;;;;6.00;3.90;;;;;;;27.67;38.37;96784.88;5027846;28;20214;-30
2021/09/27 04:54:04;;;;;;;4.05;3.65;;;;;;;27.67;38.36;96791.91;5028068;28;20143;-32
2021/09/27 04:56:41;;;;;;;6.97;3.95;;;;;;;27.67;38.24;96789.28;5027704;28;20412;-32
2021/09/27 04:59:29;;;;;;;5.20;3.75;;;;;;;27.65;38.13;96789.41;5016034;28;20032;-29
2021/09/27 05:01:58;;;;;;;5.38;3.80;;;;;;;27.67;38.14;96791.91;5029877;28;20031;-32
2021/09/27 05:04:44;;;;;;;4.75;3.85;;;;;;;27.64;38.26;96798.22;5027470;28;20029;-31
2021/09/27 05:07:27;;;;;;;4.45;3.83;;;;;;;27.64;38.24;96796.44;5026995;28;20736;-30
2021/09/27 05:10:08;;;;;;;5.47;3.72;;;;;;;27.64;38.20;96801.72;5033583;28;20032;-30
2021/09/27 05:13:01;;;;;;;4.82;4.10;;;;;;;27.62;38.24;96795.69;5031991;28;20399;-32
2021/09/27 05:15:29;;;;;;;5.30;3.97;;;;;;;27.65;38.21;96797.31;5030308;28;20031;-27
2021/09/27 05:18:10;;;;;;;4.10;3.70;;;;;;;27.63;38.04;96792.13;5026565;28;20030;-34
2021/09/27 05:20:53;;;;;;;4.38;3.95;;;;;;;27.63;38.00;96800.03;5035180;28;20030;-28
2021/09/27 05:23:27;;;;;;;4.70;4.07;;;;;;;27.63;38.03;96792.13;5029242;28;20055;-29
2021/09/27 05:26:07;;;;;;;4.25;3.85;;;;;;;27.64;38.16;96803.50;5031832;28;20024;-31
2021/09/27 05:28:48;;;;;;;4.75;3.88;;;;;;;27.63;38.04;96793.91;5031534;28;20432;-28
2021/09/27 05:31:29;;;;;;;4.47;4.07;;;;;;;27.62;37.97;96802.75;5029762;28;20125;-32
2021/09/27 05:34:30;;;;;;;5.50;3.70;;;;;;;27.62;38.00;96805.38;5014485;28;20119;-29
2021/09/27 05:37:16;;;;;;;8.93;3.95;;;;;;;27.62;38.06;96800.13;4976578;28;20132;-30
2021/09/27 05:40:12;;;;;;;5.70;4.18;;;;;;;27.62;38.03;96802.75;5019142;28;20071;-28
2021/09/27 05:43:15;;;;;;;5.22;3.97;;;;;;;27.61;38.07;96809.78;5017738;28;20522;-29
2021/09/27 05:45:46;;;;;;;4.18;3.78;;;;;;;27.61;38.00;96807.16;5018767;28;20399;-31
2021/09/27 05:48:30;;;;;;;5.28;4.15;;;;;;;27.60;37.96;96813.34;5019468;28;20415;-29
2021/09/27 05:51:08;;;;;;;5.32;3.55;;;;;;;27.60;38.00;96812.47;5003380;28;20025;-30
2021/09/27 05:54:00;;;;;;;5.38;4.03;;;;;;;27.60;38.08;96813.34;5025993;28;20057;-30
2021/09/27 05:56:30;;;;;;;;;;;;;;;27.60;38.04;96810.69;4995063;28;20048;-32
2021/09/27 05:59:22;;;;;;;4.70;4.20;;;;;;;27.60;38.06;96808.06;5017334;28;20625;-29
2021/09/27 06:02:00;;;;;;;5.03;3.90;;;;;;;27.59;38.05;96816.91;5018377;28;20088;-30
2021/09/27 06:04:57;;;;;;;4.40;4.00;;;;;;;27.59;37.90;96809.00;5015890;28;20056;-27
2021/09/27 06:07:39;;;;;;;3.97;3.58;;;;;;;27.59;37.79;96822.19;5003122;28;20075;-28
2021/09/27 06:10:23;;;;;;;4.05;3.63;;;;;;;27.59;37.88;96819.53;5023831;28;20804;-30
2021/09/27 06:13:14;;;;;;;5.40;4.03;;;;;;;27.59;38.10;96822.19;5003714;28;20033;-30
2021/09/27 06:15:51;;;;;;;4.07;3.60;;;;;;;27.60;38.06;96823.88;5018475;28;20029;-30
2021/09/27 06:18:28;;;;;;;5.60;3.63;;;;;;;27.60;37.93;96823.88;5020889;28;20532;-30
2021/09/27 06:21:17;;;;;;;4.15;3.63;;;;;;;27.60;38.01;96818.59;5029090;28;20041;-27
2021/09/27 06:23:58;;;;;;;4.50;4.10;;;;;;;27.60;38.06;96818.59;5019124;28;20020;-30
2021/09/27 06:26:24;;;;;;;4.22;3.83;;;;;;;27.60;37.92;96818.59;5012545;28;20084;-28
2021/09/27 06:29:00;;;;;;;8.38;4.00;;;;;;;27.61;37.95;96820.31;5016416;28;20071;-30
2021/09/27 06:31:31;;;;;;;4.30;3.90;;;;;;;27.62;38.08;96813.28;5020072;28;20029;-29
2021/09/27 06:34:14;;;;;;;4.30;3.88;;;;;;;27.61;37.83;96812.41;5000515;28;20063;-29
2021/09/27 06:36:39;;;;;;;6.35;3.95;;;;;;;27.63;37.97;96812.34;5026361;28;20619;-29
2021/09/27 06:39:07;;;;;;;4.43;3.90;;;;;;;27.62;37.95;96811.47;5002065;28;20025;-29
2021/09/27 06:41:34;;;;;;;3.85;3.40;;;;;;;27.64;37.88;96814.03;5001005;28;20058;-30
2021/09/27 06:43:59;;;;;;;3.53;3.22;;;;;;;27.64;38.00;96809.63;5017570;28;20035;-30
2021/09/27 06:46:25;;;;;;;4.18;3.78;;;;;;;27.65;37.97;96805.22;5021293;28;20025;-29
2021/09/27 06:48:50;;;;;;;6.15;3.78;;;;;;;27.67;37.74;96807.72;5027184;28;20507;-30
2021/09/27 06:51:15;;;;;;;6.07;3.67;;;;;;;27.68;38.01;96810.25;5024066;28;20035;-27
2021/09/27 06:53:41;;;;;;;5.10;3.42;;;;;;;27.68;38.15;96809.44;5022792;28;20032;-29
2021/09/27 06:56:06;;;;;;;5.22;4.35;;;;;;;27.70;38.11;96808.41;5022083;28;20033;-29
2021/09/27 06:58:32;;;;;;;7.57;3.95;;;;;;;27.71;38.04;96809.22;5023473;28;20639;-28
2021/09/27 07:00:57;;;;;;;9.88;5.00;;;;;;;27.71;37.98;96811.84;5026195;28;20501;-30
2021/09/27 07:03:23;;;;;;;16.13;4.38;;;;;;;27.72;38.39;96810.94;5029238;28;20586;-29
2021/09/27 07:05:48;;;;;;;12.77;4.40;;;;;;;27.73;38.66;96802.94;5023270;28;20515;-32
2021/09/27 07:08:14;;;;;;;9.77;4.60;;;;;;;27.73;38.76;96797.66;4997577;28;20068;-29
2021/09/27 07:10:39;;;;;;;8.07;4.03;;;;;;;27.74;38.60;96794.13;5003802;28;20037;-37
2021/09/27 07:13:05;;;;;;;8.20;4.80;;;;;;;27.76;38.38;96792.22;5005807;28;20038;-29
2021/09/27 07:15:30;;;;;;;9.55;4.65;;;;;;;27.78;38.38;96794.75;5010930;28;20053;-30
2021/09/27 07:17:56;;;;;;;9.15;5.30;;;;;;;27.80;38.43;96787.59;5006211;28;20638;-30
2021/09/27 07:20:25;;;;;;;13.82;5.20;;;;;;;27.80;38.27;96795.50;5003914;28;20029;-29
2021/09/27 07:22:50;;;;;;;11.50;5.70;;;;;;;27.79;38.24;96793.81;5005918;28;20069;-30
2021/09/27 07:25:16;;;;;;;14.70;5.55;;;;;;;27.82;38.48;96796.25;5005570;28;21079;-33
2021/09/27 07:27:41;;;;;;;9.02;5.53;;;;;;;27.84;38.35;96793.53;5001145;28;20495;-29
2021/09/27 07:30:08;;;;;;;10.05;5.32;;;;;;;27.84;38.47;96794.38;5003506;28;20096;-30
2021/09/27 07:32:33;;;;;;;10.23;5.35;;;;;;;27.85;38.39;96796.09;5003445;28;20041;-29
2021/09/27 07:34:59;;;;;;;8.23;5.30;;;;;;;27.86;38.38;96796.91;5005633;28;20306;-30
2021/09/27 07:37:24;;;;;;;10.50;5.05;;;;;;;27.88;38.51;96795.03;5001555;28;20099;-30
2021/09/27 07:39:49;;;;;;;10.10;5.35;;;;;;;27.90;38.38;96799.28;5004726;28;20037;-32
2021/09/27 07:42:15;;;;;;;10.82;5.18;;;;;;;27.91;38.37;96805.38;5006392;28;20033;-30
2021/09/27 07:44:40;;;;;;;9.20;5.28;;;;;;;27.91;38.44;96800.97;5004621;28;20101;-30
2021/09/27 07:47:06;;;;;;;8.25;5.00;;;;;;;27.92;38.34;96802.66;5005798;28;20030;-31
2021/09/27 07:49:31;;;;;;;7.07;4.80;;;;;;;27.95;38.32;96800.78;5004653;28;20033;-28
2021/09/27 07:51:57;;;;;;;9.88;5.18;;;;;;;27.96;38.38;96807.72;5011414;28;20022;-30
2021/09/27 07:54:24;;;;;;;8.80;4.85;;;;;;;27.99;38.33;96802.28;5002635;28;20029;-30
2021/09/27 07:56:49;;;;;;;11.20;4.88;;;;;;;28.00;38.48;96798.69;5004417;28;20859;-30
2021/09/27 07:59:15;;;;;;;9.05;4.55;;;;;;;28.01;38.36;96800.38;5001647;28;20030;-28
2021/09/27 08:01:40;;;;;;;8.07;4.55;;;;;;;28.02;38.42;96808.19;5005456;28;20135;-29
2021/09/27 08:04:06;;;;;;;8.43;4.68;;;;;;;28.03;38.33;96799.34;5005756;28;20025;-30
2021/09/27 08:06:31;;;;;;;6.78;4.57;;;;;;;28.05;38.44;96796.63;5001709;28;20026;-29
2021/09/27 08:08:57;;;;;;;8.60;4.63;;;;;;;28.07;38.44;96797.34;5005099;28;20422;-29
2021/09/27 08:11:22;;;;;;;9.38;4.30;;;;;;;28.08;38.46;96801.72;5004632;28;20052;-29
2021/09/27 08:13:48;;;;;;;7.00;4.53;;;;;;;28.09;38.53;96807.81;5005230;28;20025;-31
2021/09/27 08:16:13;;;;;;;8.20;4.70;;;;;;;28.10;38.44;96799.81;5006939;28;20894;-30
2021/09/27 08:18:38;;;;;;;6.38;4.03;;;;;;;28.12;38.16;96818.16;5002792;28;20040;-29
2021/09/27 08:21:09;;;;;;;6.30;4.28;;;;;;;28.13;38.42;96820.69;5007311;28;20034;-31
2021/09/27 08:23:35;;;;;;;7.07;4.57;;;;;;;28.13;38.50;96810.16;5005140;28;20112;-29
2021/09/27 08:26:00;;;;;;;10.20;4.97;;;;;;;28.14;38.58;96803.94;5004118;28;21094;-29
2021/09/27 08:28:27;;;;;;;9.63;4.55;;;;;;;28.16;38.37;96815.25;5008647;28;20025;-29
2021/09/27 08:30:54;;;;;;;7.72;4.07;;;;;;;28.17;38.45;96811.66;5011795;28;20029;-30
2021/09/27 08:33:21;;;;;;;11.48;4.60;;;;;;;28.19;38.48;96803.66;5006209;28;20058;-30
2021/09/27 08:35:48;;;;;;;11.27;5.75;;;;;;;28.18;38.47;96808.09;5003534;28;22217;-29
2021/09/27 08:38:15;;;;;;;7.38;4.70;;;;;;;28.20;37.83;96809.75;5006030;28;20092;-30
2021/09/27 08:40:49;;;;;;;9.48;4.22;;;;;;;28.17;37.38;96822.19;5007872;28;20025;-27
2021/09/27 08:43:40;;;;;;;9.45;5.07;;;;;;;28.14;37.30;96811.84;5004395;28;20492;-27
2021/09/27 08:46:12;;;;;;;8.27;4.50;;;;;;;28.11;37.13;96801.50;4995746;28;20037;-30
2021/09/27 08:48:41;;;;;;;4.40;4.00;;;;;;;28.09;37.02;96805.16;5001322;28;20072;-29
2021/09/27 08:51:07;;;;;;;5.55;4.50;;;;;;;28.05;37.17;96809.78;5005264;28;20134;-31
2021/09/27 08:53:37;;;;;;;7.40;4.60;;;;;;;28.02;37.04;96802.06;5007814;28;20544;-29
2021/09/27 08:56:24;;;;;;;9.73;4.30;;;;;;;27.97;36.90;96804.16;5006345;28;20538;-28
2021/09/27 08:59:12;;;;;;;8.75;4.03;;;;;;;27.95;36.82;96811.31;5007819;28;20462;-28
2021/09/27 09:01:42;;;;;;;6.68;4.13;;;;;;;27.92;37.06;96807.91;5004259;28;20034;-29
2021/09/27 09:04:33;;;;;;;5.60;3.80;;;;;;;27.92;37.05;96802.66;5005542;28;20013;-31
2021/09/27 09:07:06;;;;;;;7.35;3.97;;;;;;;27.92;37.02;96802.66;5004179;28;20039;-30
2021/09/27 09:09:41;;;;;;;10.88;4.40;;;;;;;27.92;37.00;96805.28;4988995;28;20029;-28
2021/09/27 09:12:37;;;;;;;6.47;3.90;;;;;;;27.92;37.32;96807.91;5012379;28;20124;-30
2021/09/27 09:15:24;;;;;;;5.20;3.75;;;;;;;27.92;37.29;96796.56;5011074;28;20041;-29
2021/09/27 09:18:04;;;;;;;6.05;3.60;;;;;;;27.93;37.45;96798.25;5008247;28;20026;-30
2021/09/27 09:20:50;;;;;;;6.38;3.60;;;;;;;27.92;37.65;96794.75;5011627;28;20029;-30
2021/09/27 09:24:26;;;;;;;5.38;3.63;;;;;;;-148.56;100.00;61375.16;5017214;28;20635;-31
2021/09/27 09:26:53;;;;;;;9.70;3.88;;;;;;;27.94;37.45;96801.69;5013036;28;20153;-31
2021/09/27 09:29:23;;;;;;;13.68;4.05;;;;;;;27.94;37.45;96799.06;5013210;28;20055;-29
2021/09/27 09:31:52;;;;;;;11.55;3.90;;;;;;;27.96;37.65;96797.19;5014376;28;20033;-28
2021/09/27 09:34:17;;;;;;;7.75;3.78;;;;;;;27.96;37.61;96791.94;5012605;28;20063;-31
2021/09/27 09:36:42;;;;;;;8.10;3.67;;;;;;;27.96;37.72;96786.66;5012145;28;20496;-28
2021/09/27 09:39:25;;;;;;;6.18;3.63;;;;;;;27.97;37.73;96790.97;5011739;28;20029;-30
2021/09/27 09:41:52;;;;;;;9.25;3.50;;;;;;;27.97;37.82;96790.97;5014806;28;20101;-30
2021/09/27 09:44:25;;;;;;;8.68;3.95;;;;;;;27.98;37.50;96784.75;5018702;28;20029;-31
2021/09/27 09:47:29;;;;;;;7.35;3.80;;;;;;;27.99;37.74;96786.47;5020510;28;20036;-32
2021/09/27 09:50:10;;;;;;;9.05;3.70;;;;;;;28.00;37.56;96785.53;5012479;28;20045;-30
2021/09/27 09:52:56;;;;;;;8.45;3.83;;;;;;;28.00;37.66;96782.91;5014896;28;20045;-30
2021/09/27 09:55:44;;;;;;;6.30;3.70;;;;;;;28.00;37.90;96777.63;5011771;28;20045;-30
2021/09/27 09:58:33;;;;;;;7.07;4.28;;;;;;;28.01;37.80;96779.31;5011543;28;20028;-29
2021/09/27 10:01:03;;;;;;;13.35;4.30;;;;;;;28.01;37.88;96784.59;5006820;28;20240;-29
2021/09/27 10:03:34;;;;;;;7.20;4.15;;;;;;;28.03;37.78;96787.94;4998218;28;20717;-27
2021/09/27 10:06:15;;;;;;;5.95;4.28;;;;;;;28.03;37.85;96788.81;4996421;28;20034;-32
2021/09/27 10:09:00;;;;;;;8.73;3.92;;;;;;;28.04;37.97;96776.50;5016199;28;20044;-30
2021/09/27 10:11:32;;;;;;;6.45;4.28;;;;;;;28.04;37.95;96776.50;5001621;28;20111;-31
2021/09/27 10:13:58;;;;;;;9.23;3.78;;;;;;;28.06;37.76;96771.97;5013749;28;20014;-30
2021/09/27 10:16:45;;;;;;;6.57;3.80;;;;;;;28.05;37.96;96783.44;5002124;28;20022;-30
2021/09/27 10:19:26;;;;;;;6.85;3.83;;;;;;;28.07;37.86;96786.81;5011677;28;20026;-31
2021/09/27 10:21:57;;;;;;;6.72;3.55;;;;;;;28.07;37.94;96778.91;5015641;28;20781;-31
2021/09/27 10:24:31;;;;;;;4.88;3.47;;;;;;;28.08;37.96;96780.63;5014668;28;20111;-30
2021/09/27 10:26:56;;;;;;;5.72;3.70;;;;;;;28.09;37.96;96792.84;5000982;28;20033;-28
2021/09/27 10:29:24;;;;;;;8.85;3.78;;;;;;;28.09;38.03;96792.84;5011778;28;20500;-29
2021/09/27 10:32:01;;;;;;;5.45;3.72;;;;;;;28.08;38.19;96783.25;5014902;28;20044;-32
2021/09/27 10:34:30;;;;;;;5.60;3.65;;;;;;;28.11;38.31;96788.31;5019222;28;20038;-27
2021/09/27 10:37:00;;;;;;;4.80;3.47;;;;;;;28.12;38.20;96783.91;5001684;28;20177;-33
2021/09/27 10:39:26;;;;;;;6.90;3.40;;;;;;;28.13;38.04;96790.88;5012780;28;20032;-29
2021/09/27 10:41:53;;;;;;;7.15;3.45;;;;;;;28.13;38.07;96781.19;5015537;28;20407;-28
2021/09/27 10:44:47;;;;;;;6.43;3.40;;;;;;;28.14;37.94;96777.59;5008444;28;20030;-30
2021/09/27 10:47:19;;;;;;;4.55;3.15;;;;;;;28.16;38.08;96780.13;4992003;28;20170;-34
2021/09/27 10:49:52;;;;;;;4.90;3.60;;;;;;;28.16;38.05;96772.25;5005704;28;20038;-30
2021/09/27 10:52:17;;;;;;;5.55;3.20;;;;;;;28.16;38.06;96773.09;5002108;28;20021;-29
2021/09/27 10:55:08;;;;;;;4.07;3.10;;;;;;;28.16;37.94;96770.47;5005196;28;20032;-29
2021/09/27 10:57:57;;;;;;;5.40;3.65;;;;;;;28.17;38.03;96764.25;5007604;28;20075;-28
2021/09/27 11:00:29;;;;;;;4.25;3.28;;;;;;;28.17;38.08;96764.25;5010156;28;20037;-29
2021/09/27 11:02:55;;;;;;;;;;;;;;;28.18;38.14;96760.66;5008574;28;20021;-30
2021/09/27 11:05:55;;;;;;;7.18;3.38;;;;;;;28.19;38.15;96756.25;5005563;28;19944;-30
2021/09/27 11:08:35;;;;;;;5.57;3.20;;;;;;;28.18;38.28;96760.66;5006235;28;20033;-30
2021/09/27 11:11:01;;;;;;;3.72;3.00;;;;;;;28.18;38.08;96755.38;5006601;28;20025;-29
2021/09/27 11:13:41;;;;;;;5.40;3.40;;;;;;;28.18;38.27;96755.38;4988255;28;20026;-30
2021/09/27 11:16:23;;;;;;;4.70;3.40;;;;;;;28.17;38.35;96753.69;4998309;28;20033;-30
2021/09/27 11:18:54;;;;;;;5.07;3.10;;;;;;;28.20;38.20;96751.81;5002467;28;20029;-29
2021/09/27 11:21:41;;;;;;;6.85;3.35;;;;;;;28.20;38.00;96749.16;5003323;28;20099;-27
2021/09/27 11:24:09;;;;;;;3.22;2.70;;;;;;;28.20;38.27;96747.38;5003639;28;20038;-30
2021/09/27 11:26:37;;;;;;;4.75;2.97;;;;;;;28.21;38.43;96740.31;5002726;28;20518;-30
2021/09/27 11:29:28;;;;;;;7.05;2.88;;;;;;;28.23;38.44;96741.06;5002481;28;20057;-30
2021/09/27 11:32:17;;;;;;;5.25;2.80;;;;;;;28.23;38.45;96743.72;5003770;28;20116;-29
2021/09/27 11:34:53;;;;;;;5.10;3.13;;;;;;;28.24;38.34;96742.75;5002929;28;20048;-31
2021/09/27 11:37:25;;;;;;;4.40;2.60;;;;;;;28.24;38.30;96738.34;5011381;28;20025;-31
2021/09/27 11:40:07;;;;;;;;;;;;;;;28.26;38.39;96743.56;4997184;28;20018;-29
2021/09/27 11:42:52;;;;;;;4.03;2.90;;;;;;;28.27;38.46;96739.97;5010422;28;19917;-30
2021/09/27 11:45:29;;;;;;;5.28;2.72;;;;;;;28.27;38.46;96742.59;5012748;28;20252;-30
2021/09/27 11:48:17;;;;;;;3.33;2.67;;;;;;;28.27;38.56;96740.78;5014163;28;20025;-29
2021/09/27 11:50:55;;;;;;;4.45;2.83;;;;;;;28.27;38.57;96738.16;5012478;28;20041;-29
2021/09/27 11:53:33;;;;;;;3.67;2.40;;;;;;;28.28;38.36;96745.16;5018790;28;20032;-31
2021/09/27 11:56:21;;;;;;;3.50;2.67;;;;;;;28.29;38.57;96745.97;5016211;28;20029;-31
2021/09/27 11:58:51;;;;;;;4.97;2.70;;;;;;;28.29;38.46;96743.34;5016826;28;20479;-30
2021/09/27 12:01:48;;;;;;;3.70;2.95;;;;;;;28.30;38.46;96743.25;5003544;28;20075;-33
2021/09/27 12:04:36;;;;;;;7.65;2.85;;;;;;;28.30;38.48;96737.16;5018256;28;20029;-31
2021/09/27 12:07:03;;;;;;;3.00;2.70;;;;;;;28.31;38.42;96738.81;5017309;28;20060;-30
2021/09/27 12:09:36;;;;;;;3.38;2.50;;;;;;;28.33;38.56;96742.19;5001412;28;20091;-29
2021/09/27 12:12:03;;;;;;;3.15;2.28;;;;;;;28.33;38.72;96742.19;5008967;28;20400;-30
2021/09/27 12:14:39;;;;;;;4.07;2.70;;;;;;;28.34;38.55;96743.88;5010204;28;20026;-30